createdAt,value
2022-11-19T00:01:28.606Z,8.58
2022-11-19T00:03:56.297Z,8.74
2022-11-19T00:06:27.029Z,8.79
2022-11-19T00:08:55.167Z,8.77
2022-11-19T00:11:44.239Z,8.77
2022-11-19T00:14:13.411Z,8.78
2022-11-19T00:16:41.236Z,8.84
2022-11-19T00:19:10.451Z,8.76
2022-11-19T00:21:38.017Z,8.78
2022-11-19T00:24:05.815Z,8.98
2022-11-19T00:26:33.361Z,8.78
2022-11-19T00:29:01.029Z,8.69
2022-11-19T00:31:28.340Z,8.69
2022-11-19T00:33:55.718Z,8.80
2022-11-19T00:36:23.330Z,8.74
2022-11-19T00:38:50.800Z,8.65
2022-11-19T00:41:18.170Z,8.59
2022-11-19T00:43:48.850Z,8.74
2022-11-19T00:46:29.073Z,8.80
2022-11-19T00:48:58.258Z,8.61
2022-11-19T00:51:30.461Z,8.81
2022-11-19T00:53:58.472Z,8.60
2022-11-19T00:56:27.785Z,8.41
2022-11-19T00:58:55.860Z,8.32
2022-11-19T01:01:25.347Z,8.41
2022-11-19T01:03:52.902Z,8.22
2022-11-19T01:06:22.707Z,8.30
2022-11-19T01:08:52.386Z,8.23
2022-11-19T01:11:23.005Z,8.25
2022-11-19T01:13:50.652Z,8.21
2022-11-19T01:16:29.009Z,8.12
2022-11-19T01:18:56.858Z,8.04
2022-11-19T01:21:27.764Z,8.11
2022-11-19T01:23:55.487Z,8.03
2022-11-19T01:26:23.295Z,8.09
2022-11-19T01:28:51.504Z,8.31
2022-11-19T01:31:25.941Z,8.46
2022-11-19T01:33:53.931Z,8.45
2022-11-19T01:36:24.283Z,8.40
2022-11-19T01:38:52.427Z,8.35
2022-11-19T01:41:25.429Z,8.47
2022-11-19T01:44:03.938Z,8.48
2022-11-19T01:46:36.753Z,8.52
2022-11-19T01:49:08.351Z,8.56
2022-11-19T01:51:57.518Z,8.60
2022-11-19T01:54:36.209Z,8.57
2022-11-19T01:57:09.849Z,8.65
2022-11-19T01:59:39.279Z,8.63
2022-11-19T02:02:06.691Z,8.51
2022-11-19T02:04:36.032Z,8.42
2022-11-19T02:07:04.354Z,8.50
2022-11-19T02:09:33.637Z,8.46
2022-11-19T02:12:12.556Z,8.50
2022-11-19T02:14:58.086Z,8.59
2022-11-19T02:17:52.996Z,8.45
2022-11-19T02:20:57.650Z,8.45
2022-11-19T02:24:01.907Z,8.33
2022-11-19T02:26:47.564Z,8.33
2022-11-19T02:29:30.529Z,8.35
2022-11-19T02:32:14.940Z,8.35
2022-11-19T02:35:04.413Z,8.28
2022-11-19T02:37:49.545Z,8.16
2022-11-19T02:40:24.949Z,8.09
2022-11-19T02:42:55.910Z,7.97
2022-11-19T02:45:38.055Z,7.89
2022-11-19T02:48:11.923Z,8.12
2022-11-19T02:50:50.248Z,8.08
2022-11-19T02:53:17.589Z,8.17
2022-11-19T02:56:03.986Z,8.25
2022-11-19T02:58:52.600Z,8.13
2022-11-19T03:01:40.757Z,8.16
2022-11-19T03:04:28.831Z,8.16
2022-11-19T03:07:07.167Z,8.08
2022-11-19T03:09:41.062Z,8.22
2022-11-19T03:12:37.215Z,8.04
2022-11-19T03:15:44.723Z,8.17
2022-11-19T03:18:27.761Z,8.14
2022-11-19T03:21:04.510Z,8.15
2022-11-19T03:23:45.117Z,8.03
2022-11-19T03:26:37.455Z,7.95
2022-11-19T03:29:13.802Z,7.91
2022-11-19T03:31:47.739Z,7.83
2022-11-19T03:34:20.812Z,7.74
2022-11-19T03:36:51.200Z,7.85
2022-11-19T03:39:21.620Z,7.89
2022-11-19T03:41:52.757Z,7.90
2022-11-19T03:44:23.430Z,7.84
2022-11-19T03:46:55.752Z,7.90
2022-11-19T03:49:31.798Z,7.91
2022-11-19T03:52:13.476Z,7.83
2022-11-19T03:54:42.159Z,7.80
2022-11-19T03:57:13.912Z,7.79
2022-11-19T03:59:41.234Z,7.89
2022-11-19T04:02:10.722Z,7.84
2022-11-19T04:04:38.743Z,7.86
2022-11-19T04:07:18.590Z,7.86
2022-11-19T04:09:46.184Z,7.91
2022-11-19T04:12:22.126Z,7.75
2022-11-19T04:14:50.319Z,7.66
2022-11-19T04:17:19.873Z,7.69
2022-11-19T04:19:47.229Z,7.67
2022-11-19T04:22:14.737Z,7.57
2022-11-19T04:24:42.269Z,7.56
2022-11-19T04:27:09.857Z,7.42
2022-11-19T04:29:37.358Z,7.40
2022-11-19T04:32:05.046Z,7.38
2022-11-19T04:34:32.553Z,7.57
2022-11-19T04:36:59.935Z,7.49
2022-11-19T04:39:27.424Z,7.52
2022-11-19T04:41:54.831Z,7.46
2022-11-19T04:44:22.292Z,7.34
2022-11-19T04:46:49.717Z,7.16
2022-11-19T04:49:17.193Z,7.12
2022-11-19T04:51:45.219Z,7.08
2022-11-19T04:54:13.183Z,7.08
2022-11-19T04:56:40.675Z,7.24
2022-11-19T04:59:08.241Z,7.36
2022-11-19T05:01:35.665Z,7.49
2022-11-19T05:04:03.157Z,7.46
2022-11-19T05:06:30.834Z,7.43
2022-11-19T05:08:58.408Z,7.37
2022-11-19T05:11:26.334Z,7.44
2022-11-19T05:13:53.688Z,7.49
2022-11-19T05:16:21.068Z,7.46
2022-11-19T05:18:48.582Z,7.43
2022-11-19T05:21:16.564Z,7.34
2022-11-19T05:23:43.889Z,7.31
2022-11-19T05:26:11.252Z,7.21
2022-11-19T05:28:39.940Z,7.21
2022-11-19T05:31:08.111Z,7.16
2022-11-19T05:33:35.545Z,7.12
2022-11-19T05:36:04.112Z,7.24
2022-11-19T05:38:31.622Z,7.13
2022-11-19T05:40:59.049Z,7.01
2022-11-19T05:43:27.253Z,7.08
2022-11-19T05:45:54.658Z,7.11
2022-11-19T05:48:22.055Z,7.03
2022-11-19T05:50:49.472Z,7.24
2022-11-19T05:53:17.231Z,7.22
2022-11-19T05:55:44.675Z,7.17
2022-11-19T05:58:13.872Z,7.36
2022-11-19T06:00:41.451Z,7.44
2022-11-19T06:03:10.888Z,7.43
2022-11-19T06:05:40.524Z,7.39
2022-11-19T06:08:08.535Z,7.28
2022-11-19T06:10:36.144Z,7.21
2022-11-19T06:13:03.656Z,7.12
2022-11-19T06:15:31.223Z,7.12
2022-11-19T06:17:58.606Z,7.15
2022-11-19T06:20:26.058Z,7.14
2022-11-19T06:22:53.530Z,7.09
2022-11-19T06:25:20.979Z,7.10
2022-11-19T06:27:48.334Z,7.10
2022-11-19T06:30:16.309Z,7.08
2022-11-19T06:32:44.240Z,7.15
2022-11-19T06:35:14.148Z,7.10
2022-11-19T06:37:41.804Z,7.11
2022-11-19T06:40:09.827Z,7.10
2022-11-19T06:42:37.272Z,7.08
2022-11-19T06:45:08.216Z,7.15
2022-11-19T06:47:37.059Z,7.20
2022-11-19T06:50:06.842Z,7.24
2022-11-19T06:52:34.499Z,7.17
2022-11-19T06:55:02.272Z,7.17
2022-11-19T06:57:29.666Z,7.22
2022-11-19T06:59:57.020Z,7.33
2022-11-19T07:02:24.357Z,7.44
2022-11-19T07:04:52.280Z,7.40
2022-11-19T07:07:19.692Z,7.36
2022-11-19T07:09:47.099Z,7.23
2022-11-19T07:12:14.597Z,7.24
2022-11-19T07:14:41.981Z,7.14
2022-11-19T07:17:09.462Z,7.16
2022-11-19T07:19:36.943Z,7.23
2022-11-19T07:22:04.411Z,7.29
2022-11-19T07:24:32.017Z,7.26
2022-11-19T07:26:59.460Z,7.37
2022-11-19T07:29:26.980Z,7.38
2022-11-19T07:31:54.385Z,7.34
2022-11-19T07:34:21.908Z,7.38
2022-11-19T07:36:50.215Z,7.37
2022-11-19T07:39:18.193Z,7.43
2022-11-19T07:42:04.600Z,7.44
2022-11-19T07:44:33.976Z,7.43
2022-11-19T07:47:01.415Z,7.58
2022-11-19T07:49:28.815Z,7.62
2022-11-19T07:51:56.262Z,7.74
2022-11-19T07:54:23.680Z,7.80
2022-11-19T07:56:51.084Z,7.90
2022-11-19T07:59:19.166Z,8.02
2022-11-19T08:01:46.855Z,8.18
2022-11-19T08:04:14.370Z,8.16
2022-11-19T08:06:41.770Z,8.21
2022-11-19T08:09:09.267Z,8.27
2022-11-19T08:11:36.612Z,8.38
2022-11-19T08:14:04.320Z,8.52
2022-11-19T08:16:52.304Z,8.67
2022-11-19T08:19:20.273Z,8.82
2022-11-19T08:21:47.958Z,8.98
2022-11-19T08:24:18.249Z,9.08
2022-11-19T08:26:47.151Z,9.17
2022-11-19T08:29:16.879Z,9.25
2022-11-19T08:31:54.926Z,9.32
2022-11-19T08:34:22.859Z,9.37
2022-11-19T08:36:50.634Z,9.41
2022-11-19T08:39:18.078Z,9.61
2022-11-19T08:42:04.093Z,9.64
2022-11-19T08:44:31.488Z,9.82
2022-11-19T08:46:58.935Z,9.93
2022-11-19T08:49:26.296Z,10.09
2022-11-19T08:51:53.808Z,10.17
2022-11-19T08:54:22.020Z,10.23
2022-11-19T08:56:49.802Z,10.28
2022-11-19T08:59:17.644Z,10.32
2022-11-19T09:01:46.300Z,10.37
2022-11-19T09:04:13.616Z,10.38
2022-11-19T09:06:41.087Z,10.41
2022-11-19T09:09:09.022Z,10.43
2022-11-19T09:11:41.311Z,10.42
2022-11-19T09:14:10.475Z,10.41
2022-11-19T09:16:37.803Z,10.44
2022-11-19T09:19:05.211Z,10.48
2022-11-19T09:21:32.633Z,10.54
2022-11-19T09:23:59.983Z,10.68
2022-11-19T09:26:27.411Z,10.83
2022-11-19T09:28:54.808Z,10.92
2022-11-19T09:31:22.341Z,11.09
2022-11-19T09:33:51.769Z,11.08
2022-11-19T09:36:20.329Z,11.07
2022-11-19T09:38:48.365Z,11.18
2022-11-19T09:41:27.899Z,11.28
2022-11-19T09:44:10.548Z,11.35
2022-11-19T09:46:58.262Z,11.41
2022-11-19T09:49:32.399Z,11.40
2022-11-19T09:52:06.308Z,11.30
2022-11-19T09:54:34.719Z,11.38
2022-11-19T09:57:08.878Z,11.41
2022-11-19T09:59:40.134Z,11.33
2022-11-19T10:02:16.911Z,11.42
2022-11-19T10:04:46.313Z,11.43
2022-11-19T10:07:22.940Z,11.51
2022-11-19T10:10:18.198Z,11.43
2022-11-19T10:13:13.164Z,11.48
2022-11-19T10:15:58.415Z,11.57
2022-11-19T10:18:43.548Z,11.64
2022-11-19T10:21:29.440Z,11.66
2022-11-19T10:24:20.291Z,11.76
2022-11-19T10:27:15.735Z,11.81
2022-11-19T10:29:43.624Z,11.83
2022-11-19T10:32:27.489Z,11.85
2022-11-19T10:35:00.061Z,11.86
2022-11-19T10:37:34.938Z,11.97
2022-11-19T10:40:14.831Z,12.00
2022-11-19T10:42:48.693Z,12.08
2022-11-19T10:45:23.900Z,12.03
2022-11-19T10:48:08.915Z,12.10
2022-11-19T10:50:36.886Z,11.96
2022-11-19T10:53:32.161Z,12.07
2022-11-19T10:56:12.658Z,12.02
2022-11-19T10:58:46.667Z,12.03
2022-11-19T11:01:34.720Z,12.14
2022-11-19T11:04:05.650Z,12.19
2022-11-19T11:07:03.596Z,12.17
2022-11-19T11:09:35.400Z,12.20
2022-11-19T11:12:44.100Z,12.24
2022-11-19T11:15:21.571Z,12.30
2022-11-19T11:18:00.805Z,12.36
2022-11-19T11:20:30.247Z,12.34
2022-11-19T11:23:09.080Z,12.39
2022-11-19T11:25:38.232Z,12.37
2022-11-19T11:28:13.818Z,12.45
2022-11-19T11:31:10.571Z,12.55
2022-11-19T11:33:56.953Z,12.59
2022-11-19T11:36:30.435Z,12.68
2022-11-19T11:39:00.336Z,12.71
2022-11-19T11:44:27.371Z,12.73
2022-11-19T11:47:00.722Z,12.74
2022-11-19T11:49:41.479Z,12.82
2022-11-19T11:52:08.931Z,12.90
2022-11-19T11:54:57.704Z,12.89
2022-11-19T11:57:31.462Z,12.92
2022-11-19T12:00:29.737Z,12.92
2022-11-19T12:03:08.659Z,12.88
2022-11-19T12:06:06.882Z,12.98
2022-11-19T12:08:53.120Z,12.99
2022-11-19T12:11:54.485Z,12.99
2022-11-19T12:14:31.348Z,12.98
2022-11-19T12:17:26.939Z,13.03
2022-11-19T12:20:13.300Z,13.08
2022-11-19T12:22:58.236Z,13.11
2022-11-19T12:25:33.101Z,13.14
2022-11-19T12:28:32.120Z,13.12
2022-11-19T12:31:28.650Z,13.14
2022-11-19T12:34:17.458Z,13.13
2022-11-19T12:37:06.220Z,13.09
2022-11-19T12:39:53.479Z,13.12
2022-11-19T12:42:26.959Z,13.20
2022-11-19T12:45:36.932Z,13.10
2022-11-19T12:48:30.044Z,13.13
2022-11-19T12:51:01.461Z,13.11
2022-11-19T12:53:50.109Z,13.12
2022-11-19T12:56:36.887Z,13.12
2022-11-19T12:59:22.521Z,13.15
2022-11-19T13:01:55.392Z,13.10
2022-11-19T13:04:41.782Z,13.14
2022-11-19T13:07:23.287Z,13.00
2022-11-19T13:10:30.062Z,13.14
2022-11-19T13:12:59.512Z,12.98
2022-11-19T13:15:34.644Z,12.95
2022-11-19T13:21:51.618Z,13.09
2022-11-19T13:24:45.894Z,12.96
2022-11-19T13:27:23.417Z,12.96
2022-11-19T13:30:16.556Z,12.84
2022-11-19T13:33:21.861Z,12.96
2022-11-19T13:36:16.111Z,12.96
2022-11-19T13:38:59.380Z,13.00
2022-11-19T13:41:59.350Z,12.97
2022-11-19T13:44:41.005Z,12.90
2022-11-19T13:47:27.140Z,12.96
2022-11-19T13:49:58.164Z,12.96
2022-11-19T13:52:36.163Z,12.97
2022-11-19T13:55:05.387Z,12.96
2022-11-19T13:57:37.629Z,12.89
2022-11-19T14:00:22.864Z,12.86
2022-11-19T14:03:18.222Z,12.83
2022-11-19T14:06:11.553Z,12.87
2022-11-19T14:08:43.482Z,12.92
2022-11-19T14:11:48.054Z,12.91
2022-11-19T14:14:53.783Z,12.88
2022-11-19T14:17:42.685Z,12.87
2022-11-19T14:21:02.011Z,12.86
2022-11-19T14:24:01.689Z,12.78
2022-11-19T14:26:41.165Z,12.76
2022-11-19T14:29:26.582Z,12.76
2022-11-19T14:32:00.094Z,12.71
2022-11-19T14:34:35.261Z,12.71
2022-11-19T14:37:23.057Z,12.71
2022-11-19T14:40:07.353Z,12.67
2022-11-19T14:42:54.748Z,12.68
2022-11-19T14:45:22.212Z,12.65
2022-11-19T14:47:49.550Z,12.63
2022-11-19T14:50:28.635Z,12.60
2022-11-19T14:52:59.155Z,12.56
2022-11-19T14:55:33.496Z,12.57
2022-11-19T14:58:15.575Z,12.53
2022-11-19T15:00:43.224Z,12.54
2022-11-19T15:03:26.321Z,12.57
2022-11-19T15:05:54.563Z,12.47
2022-11-19T15:08:24.712Z,12.45
2022-11-19T15:11:04.263Z,12.44
2022-11-19T15:13:32.742Z,12.42
2022-11-19T15:16:02.924Z,12.36
2022-11-19T15:18:33.301Z,12.33
2022-11-19T15:21:18.712Z,12.31
2022-11-19T15:23:55.952Z,12.26
2022-11-19T15:26:38.044Z,12.20
2022-11-19T15:29:23.708Z,12.13
2022-11-19T15:32:23.614Z,12.15
2022-11-19T15:35:10.993Z,12.14
2022-11-19T15:38:15.456Z,12.10
2022-11-19T15:40:46.327Z,12.03
2022-11-19T15:43:16.791Z,12.06
2022-11-19T15:45:50.157Z,11.97
2022-11-19T15:48:23.810Z,12.00
2022-11-19T15:50:51.902Z,11.92
2022-11-19T15:53:22.225Z,11.95
2022-11-19T15:55:57.064Z,11.89
2022-11-19T15:58:27.670Z,11.87
2022-11-19T16:00:56.031Z,11.84
2022-11-19T16:03:24.009Z,11.75
2022-11-19T16:06:17.924Z,11.76
2022-11-19T16:08:47.351Z,11.72
2022-11-19T16:11:38.873Z,11.69
2022-11-19T16:14:38.461Z,11.74
2022-11-19T16:17:35.890Z,11.73
2022-11-19T16:20:12.549Z,11.63
2022-11-19T16:22:46.478Z,11.60
2022-11-19T16:25:16.905Z,11.64
2022-11-19T16:27:45.498Z,11.57
2022-11-19T16:30:21.684Z,11.57
2022-11-19T16:32:50.396Z,11.56
2022-11-19T16:35:24.724Z,11.46
2022-11-19T16:37:54.504Z,11.41
2022-11-19T16:40:22.731Z,11.47
2022-11-19T16:42:56.544Z,11.56
2022-11-19T16:45:28.639Z,11.51
2022-11-19T16:48:01.705Z,11.56
2022-11-19T16:50:35.859Z,11.62
2022-11-19T16:53:05.277Z,11.62
2022-11-19T16:55:34.574Z,11.53
2022-11-19T16:58:12.859Z,11.49
2022-11-19T17:00:42.763Z,11.49
2022-11-19T17:03:23.555Z,11.45
2022-11-19T17:05:52.926Z,11.46
2022-11-19T17:08:25.820Z,11.40
2022-11-19T17:11:36.683Z,11.52
2022-11-19T17:14:06.199Z,11.44
2022-11-19T17:16:35.212Z,11.45
2022-11-19T17:19:15.083Z,11.59
2022-11-19T17:21:50.721Z,11.62
2022-11-19T17:24:22.509Z,11.66
2022-11-19T17:26:52.796Z,11.68
2022-11-19T17:29:23.488Z,11.66
2022-11-19T17:31:54.262Z,11.65
2022-11-19T17:34:33.529Z,11.55
2022-11-19T17:37:00.970Z,11.49
2022-11-19T17:39:28.279Z,11.37
2022-11-19T17:42:14.619Z,11.35
2022-11-19T17:44:42.328Z,11.31
2022-11-19T17:47:22.477Z,11.28
2022-11-19T17:49:51.201Z,11.24
2022-11-19T17:52:25.164Z,11.18
2022-11-19T17:54:55.036Z,11.19
2022-11-19T17:57:22.576Z,11.24
2022-11-19T17:59:50.116Z,11.21
2022-11-19T18:02:19.861Z,11.11
2022-11-19T18:04:48.204Z,10.99
2022-11-19T18:07:15.783Z,10.99
2022-11-19T18:09:43.180Z,10.95
2022-11-19T18:12:15.297Z,10.98
2022-11-19T18:14:43.061Z,11.00
2022-11-19T18:17:15.191Z,10.98
2022-11-19T18:19:42.608Z,10.97
2022-11-19T18:22:18.012Z,10.89
2022-11-19T18:24:49.843Z,10.97
2022-11-19T18:27:17.671Z,10.95
2022-11-19T18:29:45.341Z,10.97
2022-11-19T18:32:15.928Z,10.95
2022-11-19T18:34:45.493Z,10.78
2022-11-19T18:37:13.253Z,10.84
2022-11-19T18:39:40.617Z,10.72
2022-11-19T18:42:11.368Z,10.81
2022-11-19T18:44:38.955Z,10.83
2022-11-19T18:47:14.940Z,10.59
2022-11-19T18:49:42.447Z,10.63
2022-11-19T18:52:14.653Z,10.59
2022-11-19T18:54:42.099Z,10.59
2022-11-19T18:57:10.925Z,10.64
2022-11-19T18:59:39.840Z,10.52
2022-11-19T19:02:07.480Z,10.52
2022-11-19T19:04:34.992Z,10.47
2022-11-19T19:07:02.499Z,10.47
2022-11-19T19:09:30.011Z,10.41
2022-11-19T19:12:15.986Z,10.27
2022-11-19T19:14:44.648Z,10.22
2022-11-19T19:17:12.991Z,10.25
2022-11-19T19:19:40.844Z,10.26
2022-11-19T19:22:08.931Z,10.31
2022-11-19T19:24:37.075Z,10.38
2022-11-19T19:27:05.368Z,10.57
2022-11-19T19:29:32.792Z,10.74
2022-11-19T19:32:00.276Z,10.74
2022-11-19T19:34:28.600Z,10.92
2022-11-19T19:36:56.093Z,11.01
2022-11-19T19:39:23.772Z,11.09
2022-11-19T19:41:51.614Z,11.11
2022-11-19T19:44:18.971Z,11.16
2022-11-19T19:46:49.940Z,11.22
2022-11-19T19:49:17.349Z,11.12
2022-11-19T19:51:44.840Z,10.95
2022-11-19T19:54:12.317Z,10.94
2022-11-19T19:56:40.535Z,10.83
2022-11-19T19:59:07.968Z,10.73
2022-11-19T20:01:36.136Z,10.76
2022-11-19T20:04:09.786Z,10.71
2022-11-19T20:06:43.716Z,10.65
2022-11-19T20:09:11.143Z,10.66
2022-11-19T20:11:38.623Z,10.62
2022-11-19T20:14:07.136Z,10.56
2022-11-19T20:16:35.274Z,10.50
2022-11-19T20:19:03.366Z,10.34
2022-11-19T20:21:34.107Z,10.38
2022-11-19T20:24:07.193Z,10.26
2022-11-19T20:26:40.452Z,10.09
2022-11-19T20:29:10.435Z,10.06
2022-11-19T20:31:38.198Z,10.04
2022-11-19T20:34:06.329Z,9.98
2022-11-19T20:36:35.488Z,9.99
2022-11-19T20:39:03.752Z,10.03
2022-11-19T20:41:49.883Z,10.09
2022-11-19T20:44:22.321Z,10.16
2022-11-19T20:47:02.153Z,10.25
2022-11-19T20:49:34.356Z,10.28
2022-11-19T20:52:02.146Z,10.32
2022-11-19T20:54:29.748Z,10.28
2022-11-19T20:56:57.577Z,10.27
2022-11-19T20:59:26.476Z,10.27
2022-11-19T21:01:55.725Z,10.30
2022-11-19T21:04:25.690Z,10.15
2022-11-19T21:06:56.350Z,10.11
2022-11-19T21:09:24.324Z,9.96
2022-11-19T21:11:52.219Z,9.86
2022-11-19T21:14:19.583Z,9.70
2022-11-19T21:16:47.145Z,9.67
2022-11-19T21:19:15.613Z,9.69
2022-11-19T21:21:44.169Z,9.74
2022-11-19T21:24:11.890Z,9.64
2022-11-19T21:26:39.463Z,9.57
2022-11-19T21:29:06.876Z,9.55
2022-11-19T21:31:38.663Z,9.60
2022-11-19T21:34:08.921Z,9.54
2022-11-19T21:36:37.282Z,9.55
2022-11-19T21:39:05.731Z,9.54
2022-11-19T21:41:33.318Z,9.58
2022-11-19T21:44:02.096Z,9.59
2022-11-19T21:46:29.781Z,9.55
2022-11-19T21:48:57.097Z,9.63
2022-11-19T21:51:25.329Z,9.52
2022-11-19T21:53:54.757Z,9.32
2022-11-19T21:56:22.490Z,9.27
2022-11-19T21:58:49.953Z,9.34
2022-11-19T22:01:17.580Z,9.30
2022-11-19T22:03:45.017Z,9.13
2022-11-19T22:06:12.536Z,9.14
2022-11-19T22:08:41.907Z,9.08
2022-11-19T22:11:30.758Z,9.07
2022-11-19T22:14:03.889Z,9.06
2022-11-19T22:16:34.484Z,9.00
2022-11-19T22:19:01.936Z,9.00
2022-11-19T22:21:29.494Z,9.07
2022-11-19T22:23:57.429Z,8.96
2022-11-19T22:26:25.475Z,8.92
2022-11-19T22:28:52.908Z,8.85
2022-11-19T22:31:20.338Z,8.75
2022-11-19T22:33:52.121Z,8.76
2022-11-19T22:36:21.257Z,8.80
2022-11-19T22:38:49.100Z,8.68
2022-11-19T22:41:18.865Z,8.75
2022-11-19T22:43:46.756Z,8.88
2022-11-19T22:46:14.839Z,8.82
2022-11-19T22:48:42.606Z,8.85
2022-11-19T22:51:14.354Z,8.89
2022-11-19T22:53:42.071Z,8.82
2022-11-19T22:56:11.726Z,8.89
2022-11-19T22:58:39.337Z,8.70
2022-11-19T23:01:12.879Z,8.79
2022-11-19T23:03:40.270Z,8.58
2022-11-19T23:06:07.708Z,8.46
2022-11-19T23:08:35.180Z,8.50
2022-11-19T23:11:05.338Z,8.56
2022-11-19T23:13:35.252Z,8.66
2022-11-19T23:16:14.797Z,8.69
2022-11-19T23:18:46.136Z,8.64
2022-11-19T23:21:17.176Z,8.74
2022-11-19T23:23:45.076Z,8.73
2022-11-19T23:26:14.335Z,8.76
2022-11-19T23:28:42.227Z,8.66
2022-11-19T23:31:15.237Z,8.58
2022-11-19T23:33:43.372Z,8.64
2022-11-19T23:36:13.594Z,8.64
2022-11-19T23:38:41.516Z,8.64
2022-11-19T23:41:11.145Z,8.68
2022-11-19T23:43:38.912Z,8.71
2022-11-19T23:46:08.919Z,8.62
2022-11-19T23:48:38.253Z,8.69
2022-11-19T23:51:08.925Z,8.43
2022-11-19T23:53:36.659Z,8.54
2022-11-19T23:56:04.987Z,8.57
2022-11-19T23:58:33.448Z,8.69
